Time;durP1;ratioP1;P1;durP2;ratioP2;P2;SDS_P1;SDS_P2;PMS_P1;PMS_P2;Temp;Humidity;BMP_temperature;BMP_pressure;BME280_temperature;BME280_humidity;BME280_pressure;Samples;Min_cycle;Max_cycle;Signal;HPM_P1;HPM_P2
2023/06/06 00:00:31;;;;;;;15.68;11.70;;;;;;;11.39;100.00;101897.81;5092412;28;20093;-43
2023/06/06 00:02:56;;;;;;;15.68;10.77;;;;;;;11.35;100.00;101900.28;5092862;28;20047;-43
2023/06/06 00:05:25;;;;;;;17.73;10.98;;;;;;;11.32;100.00;101897.56;5092148;28;20016;-45
2023/06/06 00:07:51;;;;;;;14.35;10.75;;;;;;;11.26;100.00;101898.97;5093029;28;20024;-43
2023/06/06 00:10:17;;;;;;;17.65;12.35;;;;;;;11.23;100.00;101897.13;5092373;28;20089;-45
2023/06/06 00:12:43;;;;;;;16.10;11.32;;;;;;;11.17;100.00;101894.31;5092495;28;20047;-43
2023/06/06 00:15:12;;;;;;;15.70;11.32;;;;;;;11.11;100.00;101899.19;5092755;28;20484;-44
2023/06/06 00:17:38;;;;;;;14.68;11.05;;;;;;;11.10;100.00;101897.44;5092591;28;20031;-44
2023/06/06 00:20:06;;;;;;;17.88;12.15;;;;;;;11.05;100.00;101897.22;5092180;28;20400;-43
2023/06/06 00:22:32;;;;;;;16.05;11.70;;;;;;;11.02;100.00;101897.09;5092187;28;20085;-44
2023/06/06 00:24:58;;;;;;;17.52;11.80;;;;;;;10.95;100.00;101890.78;5092998;28;20038;-45
2023/06/06 00:27:23;;;;;;;19.58;12.73;;;;;;;10.93;100.00;101894.09;5091990;28;20081;-44
2023/06/06 00:29:48;;;;;;;16.05;11.77;;;;;;;10.87;100.00;101895.59;5095600;28;20028;-44
2023/06/06 00:32:14;;;;;;;16.08;11.75;;;;;;;10.86;100.00;101891.25;5096890;28;20463;-46
2023/06/06 00:34:39;;;;;;;18.00;11.68;;;;;;;10.80;100.00;101890.97;5095997;28;20463;-43
2023/06/06 00:37:05;;;;;;;18.42;12.05;;;;;;;10.80;100.00;101896.13;5096527;28;20032;-43
2023/06/06 00:39:30;;;;;;;19.80;12.73;;;;;;;10.73;100.00;101888.94;5096079;28;20043;-43
2023/06/06 00:41:55;;;;;;;19.25;12.05;;;;;;;10.73;100.00;101891.50;5096072;28;20036;-44
2023/06/06 00:44:21;;;;;;;17.88;12.48;;;;;;;10.69;100.00;101894.72;5096203;28;20102;-44
2023/06/06 00:46:47;;;;;;;18.38;12.13;;;;;;;10.62;100.00;101900.44;5096790;28;20084;-44
2023/06/06 00:49:15;;;;;;;16.85;12.27;;;;;;;10.53;100.00;101898.31;5096089;28;20024;-44
2023/06/06 00:51:42;;;;;;;18.08;12.07;;;;;;;10.53;100.00;101899.22;5095921;28;20407;-44
2023/06/06 00:54:12;;;;;;;16.23;12.40;;;;;;;10.47;100.00;101900.59;5096647;28;20065;-43
2023/06/06 00:56:38;;;;;;;16.05;12.30;;;;;;;10.46;100.00;101899.72;5095767;28;20020;-44
2023/06/06 00:59:05;;;;;;;18.98;13.00;;;;;;;10.47;100.00;101895.44;5096136;28;20035;-45
2023/06/06 01:01:33;;;;;;;17.85;12.73;;;;;;;10.41;100.00;101895.19;5095515;28;20084;-43
2023/06/06 01:04:00;;;;;;;;;;;;;;;10.50;100.00;101893.91;5096588;28;20024;-46
2023/06/06 01:06:26;;;;;;;18.65;12.88;;;;;;;10.40;100.00;101889.13;5095872;28;19939;-44
2023/06/06 01:08:51;;;;;;;16.63;12.20;;;;;;;10.40;100.00;101889.13;5095809;28;20479;-44
2023/06/06 01:11:35;;;;;;;18.33;12.75;;;;;;;10.35;100.00;101895.72;5095862;28;20098;-43
2023/06/06 01:14:13;;;;;;;15.63;11.95;;;;;;;10.29;100.00;101892.84;5096032;28;20050;-44
2023/06/06 01:16:40;;;;;;;16.65;11.80;;;;;;;10.28;100.00;101898.84;5095342;28;20111;-46
2023/06/06 01:19:10;;;;;;;19.77;12.55;;;;;;;10.22;100.00;101899.41;5095917;28;20024;-44
2023/06/06 01:21:41;;;;;;;22.05;13.77;;;;;;;10.17;100.00;101894.06;5095833;28;20107;-43
2023/06/06 01:24:07;;;;;;;15.75;11.93;;;;;;;10.16;100.00;101900.00;5095543;28;20169;-44
2023/06/06 01:26:33;;;;;;;16.50;11.82;;;;;;;10.10;100.00;101893.69;5095278;28;20026;-44
2023/06/06 01:28:58;;;;;;;20.25;12.40;;;;;;;10.04;100.00;101897.72;5095761;28;20020;-44
2023/06/06 01:31:30;;;;;;;17.17;12.48;;;;;;;10.02;100.00;101901.03;5095053;28;20047;-46
2023/06/06 01:34:06;;;;;;;18.33;11.35;;;;;;;9.96;100.00;101895.56;5095711;28;20032;-44
2023/06/06 01:36:41;;;;;;;18.65;12.35;;;;;;;9.90;100.00;101896.13;5095305;28;20027;-43
2023/06/06 01:39:11;;;;;;;18.23;13.25;;;;;;;9.85;100.00;101897.59;5095452;28;20028;-43
2023/06/06 01:41:38;;;;;;;17.92;13.82;;;;;;;9.87;100.00;101888.28;5094891;28;20024;-46
2023/06/06 01:44:06;;;;;;;20.05;13.20;;;;;;;9.85;100.00;101895.94;5094915;28;20534;-43
2023/06/06 01:46:31;;;;;;;;;;;;;;;9.92;100.00;101893.66;5095565;28;20081;-44
2023/06/06 01:48:57;;;;;;;18.80;13.30;;;;;;;9.80;100.00;101899.97;5095361;28;19912;-42
2023/06/06 01:51:29;;;;;;;18.80;13.07;;;;;;;9.77;100.00;101899.78;5094553;28;20023;-44
2023/06/06 01:53:57;;;;;;;20.65;12.93;;;;;;;9.74;100.00;101884.22;5095098;28;20429;-46
2023/06/06 01:56:24;;;;;;;16.77;12.98;;;;;;;9.70;100.00;101890.03;5095123;28;20020;-48
2023/06/06 01:58:50;;;;;;;21.65;12.55;;;;;;;9.65;100.00;101888.91;5094544;28;20402;-42
2023/06/06 02:01:15;;;;;;;20.02;12.90;;;;;;;9.62;100.00;101888.72;5094822;28;20039;-43
2023/06/06 02:03:41;;;;;;;21.40;13.35;;;;;;;9.58;100.00;101892.88;5095085;28;20069;-45
2023/06/06 02:06:07;;;;;;;21.85;12.80;;;;;;;9.55;100.00;101891.03;5094485;28;20066;-45
2023/06/06 02:08:32;;;;;;;17.40;12.75;;;;;;;9.49;100.00;101889.81;5094404;28;20016;-45
2023/06/06 02:10:57;;;;;;;22.15;13.85;;;;;;;9.48;100.00;101893.22;5095236;28;20028;-46
2023/06/06 02:13:23;;;;;;;18.52;12.43;;;;;;;9.42;100.00;101890.31;5093984;28;20024;-43
2023/06/06 02:15:48;;;;;;;18.92;13.00;;;;;;;9.39;100.00;101897.06;5094818;28;20020;-44
2023/06/06 02:18:13;;;;;;;21.05;12.52;;;;;;;9.36;100.00;101893.44;5094842;28;20043;-44
2023/06/06 02:20:39;;;;;;;22.98;12.90;;;;;;;9.32;100.00;101894.09;5093839;28;20483;-43
2023/06/06 02:23:04;;;;;;;20.48;13.98;;;;;;;9.32;100.00;101897.56;5094382;28;20105;-43
2023/06/06 02:25:33;;;;;;;18.67;13.27;;;;;;;9.27;100.00;101900.69;5094580;28;20020;-44
2023/06/06 02:27:58;;;;;;;18.20;13.02;;;;;;;9.25;100.00;101897.16;5093995;28;20027;-44
2023/06/06 02:30:24;;;;;;;19.38;13.63;;;;;;;9.19;100.00;101893.47;5094087;28;20032;-43
2023/06/06 02:32:50;;;;;;;21.45;14.27;;;;;;;9.23;100.00;101899.63;5094625;28;20020;-44
2023/06/06 02:35:18;;;;;;;20.52;13.07;;;;;;;9.19;100.00;101890.00;5093900;28;20102;-43
2023/06/06 02:37:43;;;;;;;;;;;;;;;9.26;100.00;101894.69;5094778;28;20074;-45
2023/06/06 02:40:10;;;;;;;19.93;13.77;;;;;;;9.14;100.00;101889.78;5093661;28;19916;-44
2023/06/06 02:42:38;;;;;;;21.77;14.00;;;;;;;9.07;100.00;101892.81;5094081;28;20327;-44
2023/06/06 02:45:07;;;;;;;23.58;14.38;;;;;;;9.04;100.00;101896.13;5094305;28;20026;-43
2023/06/06 02:47:32;;;;;;;22.90;14.23;;;;;;;9.04;100.00;101893.53;5093521;28;20032;-43
2023/06/06 02:49:58;;;;;;;19.45;13.43;;;;;;;9.00;100.00;101886.47;5094090;28;20069;-47
2023/06/06 02:52:24;;;;;;;20.60;13.95;;;;;;;8.98;100.00;101892.34;5092912;28;20024;-44
2023/06/06 02:54:50;;;;;;;20.00;13.50;;;;;;;8.93;100.00;101894.66;5093788;28;20016;-44
2023/06/06 02:57:15;;;;;;;19.92;14.48;;;;;;;8.93;100.00;101893.78;5093798;28;20021;-46
2023/06/06 02:59:41;;;;;;;18.80;13.93;;;;;;;8.88;100.00;101897.00;5094146;28;20428;-45
2023/06/06 03:02:07;;;;;;;18.08;12.93;;;;;;;8.88;100.00;101902.16;5093425;28;20464;-43
2023/06/06 03:04:33;;;;;;;19.48;14.23;;;;;;;8.85;100.00;101903.66;5093342;28;20055;-45
2023/06/06 03:06:58;;;;;;;22.90;13.57;;;;;;;8.84;100.00;101900.19;5093791;28;20031;-47
2023/06/06 03:09:24;;;;;;;22.15;13.55;;;;;;;8.80;100.00;101905.09;5092923;28;20107;-43
2023/06/06 03:11:50;;;;;;;19.25;13.60;;;;;;;8.76;100.00;101900.59;5093697;28;20016;-44
2023/06/06 03:14:17;;;;;;;20.85;14.70;;;;;;;8.76;100.00;101911.75;5093792;28;20395;-43
2023/06/06 03:16:43;;;;;;;18.42;13.43;;;;;;;8.69;100.00;101905.41;5093134;28;20194;-47
2023/06/06 03:19:10;;;;;;;20.20;13.40;;;;;;;8.71;100.00;101902.91;5093228;28;20112;-47
2023/06/06 03:21:36;;;;;;;21.67;14.40;;;;;;;8.69;100.00;101899.41;5093299;28;20130;-47
2023/06/06 03:24:02;;;;;;;20.10;14.07;;;;;;;8.67;100.00;101903.56;5093087;28;20038;-48
2023/06/06 03:26:27;;;;;;;20.35;14.32;;;;;;;8.66;100.00;101901.78;5093193;28;20024;-46
2023/06/06 03:28:53;;;;;;;20.70;14.63;;;;;;;8.64;100.00;101900.84;5093580;28;20016;-49
2023/06/06 03:31:23;;;;;;;25.42;15.07;;;;;;;8.65;100.00;101897.44;5092695;28;20051;-47
2023/06/06 03:33:49;;;;;;;20.33;13.80;;;;;;;8.62;100.00;101905.00;5093219;28;20024;-49
2023/06/06 03:36:15;;;;;;;20.13;13.95;;;;;;;8.63;100.00;101897.34;5092735;28;20475;-48
2023/06/06 03:38:40;;;;;;;21.02;14.43;;;;;;;8.60;100.00;101901.44;5092967;28;20024;-48
2023/06/06 03:41:05;;;;;;;21.65;14.63;;;;;;;8.62;100.00;101899.84;5093137;28;20031;-47
2023/06/06 03:43:30;;;;;;;20.70;14.43;;;;;;;8.61;100.00;101900.66;5092262;28;20043;-46
2023/06/06 03:45:56;;;;;;;20.92;13.95;;;;;;;8.62;100.00;101893.00;5093234;28;20035;-48
2023/06/06 03:48:21;;;;;;;19.83;14.73;;;;;;;8.63;100.00;101904.19;5092909;28;20028;-47
2023/06/06 03:50:46;;;;;;;21.13;14.75;;;;;;;8.61;100.00;101898.06;5092623;28;20028;-45
2023/06/06 03:53:11;;;;;;;21.55;14.88;;;;;;;8.62;100.00;101894.72;5093039;28;20590;-47
2023/06/06 03:55:38;;;;;;;21.58;13.82;;;;;;;8.62;100.00;101902.41;5092676;28;20043;-45
2023/06/06 03:58:03;;;;;;;21.38;13.70;;;;;;;8.63;100.00;101901.63;5092554;28;20035;-48
2023/06/06 04:00:28;;;;;;;18.83;14.38;;;;;;;8.63;100.00;101904.19;5092415;28;20115;-49
2023/06/06 04:02:53;;;;;;;23.42;14.55;;;;;;;8.65;100.00;101900.00;5092803;28;20456;-49
2023/06/06 04:05:19;;;;;;;20.25;13.75;;;;;;;8.66;100.00;101899.22;5092161;28;20110;-48
2023/06/06 04:07:45;;;;;;;19.27;14.05;;;;;;;8.68;100.00;101897.63;5092947;28;20024;-45
2023/06/06 04:10:11;;;;;;;23.90;14.10;;;;;;;8.72;100.00;101899.53;5093035;28;20414;-48
2023/06/06 04:12:36;;;;;;;21.95;14.82;;;;;;;8.75;100.00;101904.84;5092126;28;20050;-47
2023/06/06 04:15:02;;;;;;;23.05;14.60;;;;;;;8.78;100.00;101896.41;5092617;28;20077;-44
2023/06/06 04:17:28;;;;;;;21.73;14.20;;;;;;;8.78;100.00;101898.97;5092531;28;20028;-48
2023/06/06 04:19:53;;;;;;;22.85;14.10;;;;;;;8.83;100.00;101905.25;5092024;28;20040;-47
2023/06/06 04:22:22;;;;;;;19.73;14.63;;;;;;;8.84;100.00;101904.47;5092230;28;20055;-47
2023/06/06 04:24:47;;;;;;;21.13;14.88;;;;;;;8.89;100.00;101903.03;5092900;28;20024;-49
2023/06/06 04:27:13;;;;;;;22.35;14.75;;;;;;;8.90;100.00;101897.94;5092375;28;20022;-45
2023/06/06 04:29:41;;;;;;;29.85;15.38;;;;;;;8.94;100.00;101901.56;5092262;28;20031;-45
2023/06/06 04:32:10;;;;;;;23.52;14.75;;;;;;;8.99;100.00;101901.84;5092788;28;20024;-45
2023/06/06 04:34:39;;;;;;;20.75;13.88;;;;;;;9.02;100.00;101905.44;5091743;28;20527;-49
2023/06/06 04:37:05;;;;;;;22.45;14.63;;;;;;;9.06;100.00;101903.91;5092646;28;20028;-46
2023/06/06 04:39:32;;;;;;;19.58;14.82;;;;;;;9.11;100.00;101904.16;5091850;28;20031;-47
2023/06/06 04:41:58;;;;;;;27.58;14.75;;;;;;;9.16;100.00;101906.16;5092568;28;20024;-46
2023/06/06 04:44:27;;;;;;;22.05;14.30;;;;;;;9.21;100.00;101907.28;5092441;28;20103;-49
2023/06/06 04:47:00;;;;;;;20.52;15.50;;;;;;;9.25;100.00;101905.75;5091979;28;20074;-45
2023/06/06 04:49:26;;;;;;;18.85;14.52;;;;;;;9.30;100.00;101900.88;5092309;28;20020;-45
2023/06/06 04:51:53;;;;;;;23.30;15.50;;;;;;;9.38;100.00;101900.44;5092667;28;20028;-44
2023/06/06 04:54:18;;;;;;;22.77;15.27;;;;;;;9.43;100.00;101903.25;5091810;28;20064;-47
2023/06/06 04:56:44;;;;;;;22.75;15.45;;;;;;;9.52;100.00;101906.28;5092181;28;20115;-49
2023/06/06 04:59:09;;;;;;;19.58;13.98;;;;;;;9.56;100.00;101905.63;5092315;28;20467;-46
2023/06/06 05:01:36;;;;;;;21.73;14.75;;;;;;;9.61;100.00;101910.16;5091675;28;20031;-48
2023/06/06 05:04:04;;;;;;;19.47;14.37;;;;;;;9.66;100.00;101908.69;5092355;28;20031;-46
2023/06/06 05:06:31;;;;;;;19.60;13.98;;;;;;;9.71;100.00;101905.53;5091991;28;20413;-48
2023/06/06 05:09:03;;;;;;;23.63;15.10;;;;;;;9.78;100.00;101906.72;5091690;28;20529;-48
2023/06/06 05:11:29;;;;;;;19.25;14.38;;;;;;;9.81;100.00;101901.75;5091907;28;20033;-46
2023/06/06 05:13:54;;;;;;;20.10;14.73;;;;;;;9.92;100.00;101909.13;5092161;28;20027;-48
2023/06/06 05:16:20;;;;;;;21.27;13.90;;;;;;;9.98;100.00;101906.81;5094881;28;20114;-45
2023/06/06 05:18:45;;;;;;;18.27;14.98;;;;;;;10.04;100.00;101907.13;5095859;28;20036;-48
2023/06/06 05:21:10;;;;;;;19.52;13.48;;;;;;;10.03;100.00;101903.69;5095690;28;20075;-49
2023/06/06 05:23:36;;;;;;;19.13;13.77;;;;;;;10.10;100.00;101907.44;5095266;28;20020;-44
2023/06/06 05:26:01;;;;;;;21.17;13.68;;;;;;;10.21;100.00;101898.53;5095641;28;20032;-47
2023/06/06 05:28:30;;;;;;;21.17;14.32;;;;;;;10.31;100.00;101915.28;5095430;28;20352;-46
2023/06/06 05:30:58;;;;;;;24.98;14.68;;;;;;;10.35;100.00;101908.59;5095191;28;20035;-47
2023/06/06 05:33:27;;;;;;;19.25;14.25;;;;;;;10.45;100.00;101918.56;5095360;28;20421;-46
2023/06/06 05:35:55;;;;;;;18.48;14.07;;;;;;;10.49;100.00;101915.31;5095004;28;20468;-49
2023/06/06 05:38:21;;;;;;;20.50;14.18;;;;;;;10.59;100.00;101915.75;5095099;28;20024;-49
2023/06/06 05:40:46;;;;;;;20.55;14.15;;;;;;;10.61;100.00;101916.72;5095840;28;20077;-48
2023/06/06 05:43:13;;;;;;;20.13;12.93;;;;;;;10.65;100.00;101916.03;5094860;28;20032;-49
2023/06/06 05:45:39;;;;;;;21.17;13.82;;;;;;;10.83;100.00;101921.16;5095197;28;20115;-47
2023/06/06 05:48:04;;;;;;;20.50;13.55;;;;;;;10.87;100.00;101913.66;5095591;28;20115;-49
2023/06/06 05:50:30;;;;;;;21.13;12.95;;;;;;;10.86;100.00;101929.94;5094570;28;20377;-47
2023/06/06 05:52:55;;;;;;;19.58;13.63;;;;;;;10.96;100.00;101922.59;5095148;28;20063;-48
2023/06/06 05:55:28;;;;;;;22.17;14.32;;;;;;;11.08;100.00;101925.75;5094931;28;20383;-44
2023/06/06 05:57:55;;;;;;;22.65;13.52;;;;;;;11.12;100.00;101919.91;5094680;28;20027;-48
2023/06/06 06:00:21;;;;;;;21.40;13.75;;;;;;;11.18;100.00;101927.03;5094539;28;20464;-49
2023/06/06 06:02:47;;;;;;;18.08;13.60;;;;;;;11.24;100.00;101923.84;5095331;28;20043;-48
2023/06/06 06:05:12;;;;;;;19.55;13.27;;;;;;;11.33;100.00;101919.09;5094717;28;20091;-49
2023/06/06 06:07:39;;;;;;;19.77;13.13;;;;;;;11.40;100.00;101915.97;5094570;28;20028;-47
2023/06/06 06:10:05;;;;;;;22.27;14.07;;;;;;;11.58;100.00;101917.56;5094915;28;20455;-48
2023/06/06 06:12:30;;;;;;;19.45;13.55;;;;;;;11.68;100.00;101917.13;5093960;28;20035;-48
2023/06/06 06:14:56;;;;;;;17.05;12.73;;;;;;;11.79;100.00;101913.31;5094878;28;20372;-48
2023/06/06 06:17:22;;;;;;;17.08;12.25;;;;;;;11.86;100.00;101909.28;5094735;28;20035;-43
2023/06/06 06:19:47;;;;;;;24.52;14.32;;;;;;;12.00;100.00;101910.75;5093945;28;20441;-47
2023/06/06 06:22:13;;;;;;;17.83;13.05;;;;;;;12.07;100.00;101911.91;5094378;28;20531;-45
2023/06/06 06:24:38;;;;;;;18.83;12.38;;;;;;;12.13;100.00;101919.88;5094335;28;20103;-47
2023/06/06 06:27:03;;;;;;;20.90;13.00;;;;;;;12.15;100.00;101926.00;5092560;28;20032;-43
2023/06/06 06:29:29;;;;;;;18.20;12.43;;;;;;;12.14;100.00;101931.13;5094426;28;20464;-47
2023/06/06 06:31:54;;;;;;;18.00;12.23;;;;;;;12.33;100.00;101925.88;5094618;28;20483;-48
2023/06/06 06:34:19;;;;;;;18.13;13.25;;;;;;;12.36;100.00;101930.28;5093551;28;20016;-47
2023/06/06 06:36:45;;;;;;;16.42;11.68;;;;;;;12.45;100.00;101933.22;5094323;28;20360;-49
2023/06/06 06:39:10;;;;;;;18.05;12.70;;;;;;;12.55;100.00;101938.75;5093724;28;20035;-47
2023/06/06 06:41:35;;;;;;;19.13;12.20;;;;;;;12.68;100.00;101939.28;5093954;28;20033;-45
2023/06/06 06:44:01;;;;;;;19.65;11.75;;;;;;;12.69;100.00;101934.97;5094322;28;20016;-49
2023/06/06 06:46:26;;;;;;;18.63;11.82;;;;;;;12.73;100.00;101934.28;5093681;28;20047;-48
2023/06/06 06:48:51;;;;;;;16.98;11.90;;;;;;;12.92;100.00;101933.25;5093936;28;20059;-46
2023/06/06 06:51:19;;;;;;;16.67;12.40;;;;;;;13.04;100.00;101932.84;5093901;28;20024;-48
2023/06/06 06:53:44;;;;;;;18.17;11.85;;;;;;;13.21;100.00;101925.69;5093066;28;20058;-47
2023/06/06 06:56:10;;;;;;;20.35;11.80;;;;;;;13.38;100.00;101934.09;5093744;28;20498;-48
2023/06/06 06:58:35;;;;;;;18.98;12.35;;;;;;;13.47;99.03;101928.38;5093283;28;20383;-47
2023/06/06 07:01:02;;;;;;;19.90;12.27;;;;;;;13.52;97.46;101937.19;5092838;28;20103;-45
2023/06/06 07:03:28;;;;;;;17.35;11.73;;;;;;;13.54;96.45;101935.50;5093398;28;20391;-46
2023/06/06 07:05:54;;;;;;;17.08;11.43;;;;;;;13.72;97.44;101934.38;5094086;28;20058;-47
2023/06/06 07:08:20;;;;;;;18.05;11.98;;;;;;;13.87;97.48;101939.22;5092978;28;20044;-48
2023/06/06 07:10:45;;;;;;;15.80;11.90;;;;;;;13.98;96.93;101938.75;5093440;28;20439;-48
2023/06/06 07:13:12;;;;;;;16.00;11.18;;;;;;;14.06;94.94;101941.59;5093876;28;20024;-48
2023/06/06 07:15:38;;;;;;;15.65;11.27;;;;;;;14.19;95.61;101936.78;5092372;28;20032;-44
2023/06/06 07:18:03;;;;;;;18.23;11.65;;;;;;;14.28;94.28;101942.25;5093346;28;20016;-49
2023/06/06 07:20:29;;;;;;;19.10;11.52;;;;;;;14.32;93.20;101931.19;5093089;28;20060;-49
2023/06/06 07:22:55;;;;;;;15.75;11.43;;;;;;;14.49;94.15;101934.28;5092920;28;20024;-48
2023/06/06 07:25:21;;;;;;;16.10;11.85;;;;;;;14.62;93.61;101928.63;5092773;28;20024;-47
2023/06/06 07:27:46;;;;;;;14.65;10.52;;;;;;;14.64;91.57;101931.31;5093602;28;20028;-45
2023/06/06 07:30:14;;;;;;;16.80;10.48;;;;;;;14.71;91.14;101928.06;5092874;28;20032;-46
2023/06/06 07:32:41;;;;;;;19.48;11.52;;;;;;;14.86;92.02;101926.75;5093345;28;20024;-49
2023/06/06 07:35:08;;;;;;;17.25;11.43;;;;;;;14.89;89.59;101921.69;5093249;28;20472;-45
2023/06/06 07:37:35;;;;;;;20.92;11.38;;;;;;;15.04;89.24;101924.72;5091920;28;20375;-45
2023/06/06 07:40:00;;;;;;;14.43;9.55;;;;;;;15.23;89.31;101927.81;5093227;28;20032;-48
2023/06/06 07:42:25;;;;;;;15.10;10.30;;;;;;;15.27;87.27;101925.34;5092343;28;20024;-48
2023/06/06 07:44:55;;;;;;;14.45;9.82;;;;;;;15.38;88.42;101916.97;5093123;28;20133;-48
2023/06/06 07:47:21;;;;;;;17.48;10.00;;;;;;;15.55;88.01;101920.00;5092891;28;20039;-46
2023/06/06 07:49:46;;;;;;;15.13;10.50;;;;;;;15.66;87.23;101913.38;5092647;28;20016;-48
2023/06/06 07:52:11;;;;;;;16.77;9.93;;;;;;;15.78;86.05;101913.69;5092862;28;20024;-47
2023/06/06 07:54:37;;;;;;;13.82;9.65;;;;;;;15.73;84.26;101917.00;5092968;28;20028;-47
2023/06/06 07:57:05;;;;;;;15.25;9.77;;;;;;;15.98;86.87;101918.53;5092781;28;20024;-49
2023/06/06 07:59:31;;;;;;;15.77;9.80;;;;;;;15.99;83.91;101909.88;5092462;28;20483;-46
2023/06/06 08:01:57;;;;;;;16.70;9.65;;;;;;;16.09;83.92;101914.47;5093177;28;20417;-47
2023/06/06 08:04:22;;;;;;;13.13;9.10;;;;;;;16.01;81.79;101908.22;5092271;28;20479;-45
2023/06/06 08:06:48;;;;;;;15.27;9.13;;;;;;;16.13;81.83;101912.81;5092569;28;20024;-45
2023/06/06 08:09:14;;;;;;;15.05;9.63;;;;;;;16.28;83.11;101910.59;5093169;28;20028;-46
2023/06/06 08:11:39;;;;;;;19.02;10.80;;;;;;;16.30;81.67;101913.22;5092189;28;20016;-48
2023/06/06 08:14:04;;;;;;;17.38;9.85;;;;;;;16.38;81.85;101908.19;5092759;28;20017;-48
2023/06/06 08:16:30;;;;;;;19.88;9.95;;;;;;;16.43;80.84;101915.22;5092575;28;20099;-47
2023/06/06 08:18:55;;;;;;;15.35;9.68;;;;;;;16.48;79.59;101915.34;5092141;28;20028;-48
2023/06/06 08:21:22;;;;;;;16.85;10.55;;;;;;;16.63;81.06;101913.09;5092040;28;20070;-48
2023/06/06 08:23:47;;;;;;;21.43;10.17;;;;;;;16.73;80.53;101914.19;5092769;28;20024;-47
2023/06/06 08:26:12;;;;;;;20.05;10.02;;;;;;;16.89;80.24;101910.16;5092364;28;20032;-48
2023/06/06 08:28:38;;;;;;;18.55;9.88;;;;;;;16.96;79.73;101913.78;5092220;28;20089;-46
2023/06/06 08:31:03;;;;;;;17.77;9.93;;;;;;;17.05;77.53;101911.34;5092886;28;20028;-46
2023/06/06 08:33:29;;;;;;;13.68;9.15;;;;;;;17.05;76.11;101906.16;5091554;28;20024;-46
2023/06/06 08:35:54;;;;;;;13.43;8.82;;;;;;;17.24;76.01;101906.53;5092705;28;20056;-43
2023/06/06 08:38:20;;;;;;;14.93;9.15;;;;;;;17.40;77.27;101911.19;5093042;28;20020;-44
2023/06/06 08:40:45;;;;;;;15.82;9.40;;;;;;;17.45;75.33;101908.66;5091952;28;20106;-45
2023/06/06 08:43:12;;;;;;;12.85;8.32;;;;;;;17.52;73.61;101909.63;5092709;28;20024;-48
2023/06/06 08:45:47;;;;;;;13.23;8.77;;;;;;;17.73;75.02;101912.59;5092165;28;20030;-44
2023/06/06 08:48:14;;;;;;;12.05;8.43;;;;;;;18.06;76.73;101910.56;5092498;28;20036;-47
2023/06/06 08:50:42;;;;;;;14.93;9.00;;;;;;;18.22;74.41;101911.69;5094723;28;20020;-44
2023/06/06 08:53:08;;;;;;;12.80;8.32;;;;;;;18.35;73.61;101911.00;5095930;28;20451;-45
2023/06/06 08:55:37;;;;;;;13.98;8.88;;;;;;;18.34;72.11;101906.63;5096342;28;20453;-47
2023/06/06 08:58:03;;;;;;;26.70;8.77;;;;;;;18.41;70.92;101908.47;5096477;28;20057;-48
2023/06/06 09:00:29;;;;;;;31.15;9.85;;;;;;;18.53;70.86;101906.91;5095527;28;20073;-44
2023/06/06 09:02:55;;;;;;;21.02;8.77;;;;;;;18.63;69.68;101905.28;5096063;28;20020;-48
2023/06/06 09:05:21;;;;;;;22.63;9.00;;;;;;;18.91;71.63;101903.91;5095941;28;20024;-49
2023/06/06 09:07:48;;;;;;;75.38;11.85;;;;;;;19.08;70.14;101901.50;5095656;28;20027;-45
2023/06/06 09:10:14;;;;;;;16.38;8.48;;;;;;;19.14;67.92;101908.53;5096148;28;20031;-44
2023/06/06 09:12:45;;;;;;;12.32;8.15;;;;;;;19.17;67.57;101906.84;5095998;28;20028;-49
2023/06/06 09:15:10;;;;;;;16.35;9.15;;;;;;;19.36;67.53;101902.66;5095532;28;20020;-50
2023/06/06 09:17:40;;;;;;;16.25;8.68;;;;;;;19.52;67.68;101894.97;5095543;28;20024;-47
2023/06/06 09:20:11;;;;;;;16.42;8.95;;;;;;;19.56;66.62;101904.59;5095226;28;20067;-48
2023/06/06 09:22:41;;;;;;;11.95;7.93;;;;;;;19.69;67.66;101906.47;5094833;28;20058;-48
2023/06/06 09:25:23;;;;;;;15.23;8.32;;;;;;;19.80;66.47;101903.06;5095955;28;20024;-48
2023/06/06 09:27:53;;;;;;;13.95;8.23;;;;;;;19.89;64.53;101903.16;5095789;28;20028;-47
2023/06/06 09:30:21;;;;;;;14.50;8.68;;;;;;;20.00;65.03;101901.53;5095410;28;20021;-49
2023/06/06 09:32:52;;;;;;;16.70;8.20;;;;;;;20.15;64.29;101900.72;5095944;28;20020;-49
2023/06/06 09:35:18;;;;;;;14.20;8.20;;;;;;;20.19;62.20;101893.78;5094910;28;20419;-50
2023/06/06 09:37:45;;;;;;;15.15;9.05;;;;;;;20.30;62.20;101892.09;5095197;28;20028;-47
2023/06/06 09:40:12;;;;;;;12.32;8.25;;;;;;;20.47;61.69;101897.44;5095752;28;20024;-48
2023/06/06 09:42:38;;;;;;;15.25;8.10;;;;;;;20.77;61.66;101890.59;5094777;28;20020;-47
2023/06/06 09:45:17;;;;;;;12.23;7.60;;;;;;;21.01;62.32;101883.72;5095214;28;20078;-47
2023/06/06 09:47:44;;;;;;;12.98;8.25;;;;;;;21.38;61.14;101889.00;5095644;28;20503;-49
2023/06/06 09:50:11;;;;;;;12.93;7.90;;;;;;;21.49;59.14;101886.41;5094796;28;20486;-49
2023/06/06 09:52:37;;;;;;;;;;;;;;;21.68;63.92;101892.59;5095406;28;20353;-46
2023/06/06 09:55:10;;;;;;;11.85;7.68;;;;;;;22.12;58.27;101889.03;5095256;28;19923;-48
2023/06/06 09:57:38;;;;;;;14.65;7.63;;;;;;;22.18;55.35;101885.50;5094299;28;20024;-49
2023/06/06 10:00:09;;;;;;;11.75;7.45;;;;;;;22.22;53.89;101894.25;5094716;28;20383;-48
2023/06/06 10:02:40;;;;;;;14.80;7.25;;;;;;;22.59;54.65;101879.28;5094854;28;20468;-49
2023/06/06 10:05:06;;;;;;;13.88;7.28;;;;;;;23.04;51.74;101880.84;5094547;28;20030;-49
2023/06/06 10:07:32;;;;;;;12.68;7.32;;;;;;;22.86;52.72;101885.31;5094854;28;20024;-48
2023/06/06 10:09:58;;;;;;;15.88;7.93;;;;;;;23.27;51.62;101884.22;5095135;28;20052;-49
2023/06/06 10:12:27;;;;;;;16.05;7.63;;;;;;;23.43;49.75;101890.22;5094009;28;20099;-47
2023/06/06 10:14:55;;;;;;;12.48;7.40;;;;;;;24.45;48.62;101876.13;5094972;28;20357;-48
2023/06/06 10:17:23;;;;;;;11.05;7.07;;;;;;;25.09;45.93;101876.19;5094146;28;20016;-49
2023/06/06 10:19:51;;;;;;;9.32;6.90;;;;;;;25.87;44.34;101874.94;5094308;28;20069;-49
2023/06/06 10:22:17;;;;;;;12.63;6.55;;;;;;;26.24;42.57;101880.44;5094470;28;20073;-49
2023/06/06 10:24:42;;;;;;;8.98;6.40;;;;;;;26.94;40.81;101871.94;5094499;28;20040;-48
2023/06/06 10:27:18;;;;;;;11.50;6.47;;;;;;;27.55;39.80;101879.34;5094729;28;20069;-49
2023/06/06 10:30:15;;;;;;;13.20;6.68;;;;;;;28.18;41.79;101879.47;5094759;28;20035;-48
2023/06/06 10:32:53;;;;;;;9.38;6.40;;;;;;;28.15;37.65;101884.88;5040122;28;20093;-48
2023/06/06 10:35:19;;;;;;;11.00;6.55;;;;;;;28.36;37.01;101885.16;5094498;28;20028;-48
2023/06/06 10:38:06;;;;;;;12.60;6.03;;;;;;;28.56;37.80;101885.47;5094490;28;20374;-49
2023/06/06 10:40:51;;;;;;;10.65;6.03;;;;;;;28.92;37.84;101881.75;5093214;28;20035;-49
2023/06/06 10:43:42;;;;;;;12.07;6.68;;;;;;;29.19;35.72;101873.84;5094002;28;20070;-49
2023/06/06 10:46:08;;;;;;;10.18;5.45;;;;;;;29.08;34.10;101877.69;5093696;28;20035;-49
2023/06/06 10:48:45;;;;;;;8.80;5.38;;;;;;;29.34;33.57;101877.81;5093902;28;20399;-48
2023/06/06 10:51:34;;;;;;;8.93;5.65;;;;;;;29.80;35.78;101884.22;5094477;28;20032;-49
2023/06/06 10:54:20;;;;;;;11.35;5.88;;;;;;;30.28;34.72;101877.22;5085543;28;20043;-50
2023/06/06 10:56:49;;;;;;;10.20;5.60;;;;;;;29.97;33.79;101874.78;5094119;28;20530;-48
2023/06/06 10:59:15;;;;;;;9.80;5.95;;;;;;;30.15;32.10;101875.91;5093683;28;20024;-44
2023/06/06 11:01:44;;;;;;;9.63;4.82;;;;;;;30.31;32.13;101868.25;5093702;28;20086;-49
2023/06/06 11:04:17;;;;;;;9.90;5.28;;;;;;;30.07;33.22;101873.53;5093826;28;20430;-48
2023/06/06 11:06:43;;;;;;;8.82;5.22;;;;;;;30.19;32.51;101867.78;5093536;28;20052;-49
2023/06/06 11:09:20;;;;;;;9.55;5.38;;;;;;;30.49;33.08;101870.22;5093760;28;20082;-49
2023/06/06 11:11:46;;;;;;;9.77;5.60;;;;;;;30.77;31.12;101862.97;5093720;28;20032;-50